sensor_id;sensor_type;location;lat;lon;timestamp;P1;durP1;ratioP1;P2;durP2;ratioP2
25509;SDS011;13413;52.336;21.200;2023-01-13T00:02:41;23.00;;;11.80;;
25509;SDS011;13413;52.336;21.200;2023-01-13T00:05:35;24.20;;;12.50;;
25509;SDS011;13413;52.336;21.200;2023-01-13T00:11:23;26.70;;;12.20;;
25509;SDS011;13413;52.336;21.200;2023-01-13T00:14:18;23.00;;;12.50;;
25509;SDS011;13413;52.336;21.200;2023-01-13T00:17:11;29.90;;;13.50;;
25509;SDS011;13413;52.336;21.200;2023-01-13T00:20:07;30.00;;;14.60;;
25509;SDS011;13413;52.336;21.200;2023-01-13T00:23:04;24.90;;;13.40;;
25509;SDS011;13413;52.336;21.200;2023-01-13T00:25:59;28.20;;;13.90;;
25509;SDS011;13413;52.336;21.200;2023-01-13T00:28:56;23.10;;;12.00;;
25509;SDS011;13413;52.336;21.200;2023-01-13T00:31:50;27.50;;;12.80;;
25509;SDS011;13413;52.336;21.200;2023-01-13T00:34:45;29.60;;;13.00;;
25509;SDS011;13413;52.336;21.200;2023-01-13T00:46:29;26.00;;;13.00;;
25509;SDS011;13413;52.336;21.200;2023-01-13T00:49:23;27.00;;;12.90;;
25509;SDS011;13413;52.336;21.200;2023-01-13T00:52:17;27.00;;;12.60;;
25509;SDS011;13413;52.336;21.200;2023-01-13T00:55:11;22.20;;;11.50;;
25509;SDS011;13413;52.336;21.200;2023-01-13T00:58:04;24.60;;;12.70;;
25509;SDS011;13413;52.336;21.200;2023-01-13T01:01:19;27.30;;;11.70;;
25509;SDS011;13413;52.336;21.200;2023-01-13T01:07:05;19.80;;;12.40;;
25509;SDS011;13413;52.336;21.200;2023-01-13T01:10:03;24.80;;;11.60;;
25509;SDS011;13413;52.336;21.200;2023-01-13T01:12:57;25.80;;;12.70;;
25509;SDS011;13413;52.336;21.200;2023-01-13T01:15:52;24.60;;;12.70;;
25509;SDS011;13413;52.336;21.200;2023-01-13T01:18:46;29.60;;;13.30;;
25509;SDS011;13413;52.336;21.200;2023-01-13T01:21:43;26.60;;;12.40;;
25509;SDS011;13413;52.336;21.200;2023-01-13T01:24:37;30.70;;;13.40;;
25509;SDS011;13413;52.336;21.200;2023-01-13T01:27:31;28.20;;;13.20;;
25509;SDS011;13413;52.336;21.200;2023-01-13T01:30:26;27.90;;;12.60;;
25509;SDS011;13413;52.336;21.200;2023-01-13T01:33:19;27.70;;;13.30;;
25509;SDS011;13413;52.336;21.200;2023-01-13T01:36:14;22.60;;;13.10;;
25509;SDS011;13413;52.336;21.200;2023-01-13T01:39:09;25.60;;;12.90;;
25509;SDS011;13413;52.336;21.200;2023-01-13T01:42:04;27.00;;;13.90;;
25509;SDS011;13413;52.336;21.200;2023-01-13T01:45:02;24.30;;;13.30;;
25509;SDS011;13413;52.336;21.200;2023-01-13T01:48:05;28.40;;;13.80;;
25509;SDS011;13413;52.336;21.200;2023-01-13T01:51:02;27.70;;;13.60;;
25509;SDS011;13413;52.336;21.200;2023-01-13T01:53:59;24.00;;;13.10;;
25509;SDS011;13413;52.336;21.200;2023-01-13T01:56:57;26.40;;;13.20;;
25509;SDS011;13413;52.336;21.200;2023-01-13T01:59:52;23.30;;;11.90;;
25509;SDS011;13413;52.336;21.200;2023-01-13T02:05:41;17.00;;;8.30;;
25509;SDS011;13413;52.336;21.200;2023-01-13T02:08:35;22.80;;;12.00;;
25509;SDS011;13413;52.336;21.200;2023-01-13T02:11:31;25.90;;;11.60;;
25509;SDS011;13413;52.336;21.200;2023-01-13T02:14:27;22.90;;;11.80;;
25509;SDS011;13413;52.336;21.200;2023-01-13T02:17:27;25.80;;;13.30;;
25509;SDS011;13413;52.336;21.200;2023-01-13T02:24:12;26.60;;;11.60;;
25509;SDS011;13413;52.336;21.200;2023-01-13T02:27:33;23.20;;;8.70;;
25509;SDS011;13413;52.336;21.200;2023-01-13T02:30:43;24.90;;;11.90;;
25509;SDS011;13413;52.336;21.200;2023-01-13T02:33:47;27.50;;;12.20;;
25509;SDS011;13413;52.336;21.200;2023-01-13T02:36:50;26.40;;;12.00;;
25509;SDS011;13413;52.336;21.200;2023-01-13T02:39:51;25.50;;;12.20;;
25509;SDS011;13413;52.336;21.200;2023-01-13T02:42:52;20.70;;;12.00;;
25509;SDS011;13413;52.336;21.200;2023-01-13T02:45:53;22.70;;;11.30;;
25509;SDS011;13413;52.336;21.200;2023-01-13T02:48:52;30.50;;;12.90;;
25509;SDS011;13413;52.336;21.200;2023-01-13T02:51:49;23.90;;;12.10;;
25509;SDS011;13413;52.336;21.200;2023-01-13T02:54:49;24.20;;;11.80;;
25509;SDS011;13413;52.336;21.200;2023-01-13T03:11:04;22.90;;;10.10;;
25509;SDS011;13413;52.336;21.200;2023-01-13T03:14:11;21.60;;;11.40;;
25509;SDS011;13413;52.336;21.200;2023-01-13T03:17:20;27.40;;;11.30;;
25509;SDS011;13413;52.336;21.200;2023-01-13T03:20:20;22.10;;;10.90;;
25509;SDS011;13413;52.336;21.200;2023-01-13T03:23:18;25.30;;;11.10;;
25509;SDS011;13413;52.336;21.200;2023-01-13T03:26:22;19.50;;;10.60;;
25509;SDS011;13413;52.336;21.200;2023-01-13T03:29:22;18.80;;;10.80;;
25509;SDS011;13413;52.336;21.200;2023-01-13T03:32:21;18.60;;;10.80;;
25509;SDS011;13413;52.336;21.200;2023-01-13T03:35:19;20.50;;;9.90;;
25509;SDS011;13413;52.336;21.200;2023-01-13T03:38:17;21.70;;;10.90;;
25509;SDS011;13413;52.336;21.200;2023-01-13T03:41:16;22.80;;;11.40;;
25509;SDS011;13413;52.336;21.200;2023-01-13T03:44:14;20.70;;;9.80;;
25509;SDS011;13413;52.336;21.200;2023-01-13T03:47:14;23.00;;;10.40;;
25509;SDS011;13413;52.336;21.200;2023-01-13T03:50:13;20.70;;;10.00;;
25509;SDS011;13413;52.336;21.200;2023-01-13T03:53:12;22.80;;;10.40;;
25509;SDS011;13413;52.336;21.200;2023-01-13T03:56:13;23.70;;;10.50;;
25509;SDS011;13413;52.336;21.200;2023-01-13T03:59:14;25.70;;;10.90;;
25509;SDS011;13413;52.336;21.200;2023-01-13T04:02:13;23.40;;;10.70;;
25509;SDS011;13413;52.336;21.200;2023-01-13T04:05:12;17.40;;;9.60;;
25509;SDS011;13413;52.336;21.200;2023-01-13T04:08:10;22.80;;;11.60;;
25509;SDS011;13413;52.336;21.200;2023-01-13T04:11:10;18.70;;;10.60;;
25509;SDS011;13413;52.336;21.200;2023-01-13T04:14:10;21.10;;;10.50;;
25509;SDS011;13413;52.336;21.200;2023-01-13T04:17:07;24.90;;;10.60;;
25509;SDS011;13413;52.336;21.200;2023-01-13T04:20:01;17.20;;;9.50;;
25509;SDS011;13413;52.336;21.200;2023-01-13T04:22:56;23.10;;;10.10;;
25509;SDS011;13413;52.336;21.200;2023-01-13T04:25:50;23.40;;;10.40;;
25509;SDS011;13413;52.336;21.200;2023-01-13T04:28:45;18.50;;;10.60;;
25509;SDS011;13413;52.336;21.200;2023-01-13T04:31:39;20.50;;;10.50;;
25509;SDS011;13413;52.336;21.200;2023-01-13T04:34:33;20.10;;;10.30;;
25509;SDS011;13413;52.336;21.200;2023-01-13T04:37:27;23.30;;;10.80;;
25509;SDS011;13413;52.336;21.200;2023-01-13T04:40:21;20.20;;;10.10;;
25509;SDS011;13413;52.336;21.200;2023-01-13T04:43:15;24.70;;;11.40;;
25509;SDS011;13413;52.336;21.200;2023-01-13T04:46:09;22.30;;;11.20;;
25509;SDS011;13413;52.336;21.200;2023-01-13T04:49:03;24.00;;;10.80;;
25509;SDS011;13413;52.336;21.200;2023-01-13T04:51:57;21.80;;;10.80;;
25509;SDS011;13413;52.336;21.200;2023-01-13T04:54:51;21.50;;;11.20;;
25509;SDS011;13413;52.336;21.200;2023-01-13T04:57:45;22.70;;;11.70;;
25509;SDS011;13413;52.336;21.200;2023-01-13T05:00:52;24.80;;;11.20;;
25509;SDS011;13413;52.336;21.200;2023-01-13T05:03:46;20.50;;;10.60;;
25509;SDS011;13413;52.336;21.200;2023-01-13T05:06:54;22.00;;;11.40;;
25509;SDS011;13413;52.336;21.200;2023-01-13T05:09:48;18.50;;;10.20;;
25509;SDS011;13413;52.336;21.200;2023-01-13T05:12:56;23.10;;;10.50;;
25509;SDS011;13413;52.336;21.200;2023-01-13T05:15:50;22.70;;;11.40;;
25509;SDS011;13413;52.336;21.200;2023-01-13T05:18:44;20.80;;;10.00;;
25509;SDS011;13413;52.336;21.200;2023-01-13T05:30:30;15.80;;;8.90;;
25509;SDS011;13413;52.336;21.200;2023-01-13T05:33:27;20.90;;;10.00;;
25509;SDS011;13413;52.336;21.200;2023-01-13T05:36:21;15.80;;;9.10;;
25509;SDS011;13413;52.336;21.200;2023-01-13T05:39:15;20.30;;;9.70;;
25509;SDS011;13413;52.336;21.200;2023-01-13T05:42:09;21.80;;;10.30;;
25509;SDS011;13413;52.336;21.200;2023-01-13T05:45:04;19.20;;;10.10;;
25509;SDS011;13413;52.336;21.200;2023-01-13T05:47:59;18.50;;;9.60;;
25509;SDS011;13413;52.336;21.200;2023-01-13T05:50:53;23.20;;;11.00;;
25509;SDS011;13413;52.336;21.200;2023-01-13T05:53:48;20.10;;;10.60;;
25509;SDS011;13413;52.336;21.200;2023-01-13T05:56:42;23.90;;;12.20;;
25509;SDS011;13413;52.336;21.200;2023-01-13T05:59:36;28.30;;;13.30;;
25509;SDS011;13413;52.336;21.200;2023-01-13T06:02:30;23.80;;;12.20;;
25509;SDS011;13413;52.336;21.200;2023-01-13T06:05:24;17.60;;;8.20;;
25509;SDS011;13413;52.336;21.200;2023-01-13T06:08:19;22.70;;;10.70;;
25509;SDS011;13413;52.336;21.200;2023-01-13T06:11:13;21.60;;;11.30;;
25509;SDS011;13413;52.336;21.200;2023-01-13T06:14:07;20.80;;;12.00;;
25509;SDS011;13413;52.336;21.200;2023-01-13T06:20:10;18.80;;;11.30;;
25509;SDS011;13413;52.336;21.200;2023-01-13T06:23:05;21.90;;;10.80;;
25509;SDS011;13413;52.336;21.200;2023-01-13T06:26:04;21.70;;;12.30;;
25509;SDS011;13413;52.336;21.200;2023-01-13T06:29:03;26.50;;;12.70;;
25509;SDS011;13413;52.336;21.200;2023-01-13T06:31:57;20.50;;;12.80;;
25509;SDS011;13413;52.336;21.200;2023-01-13T06:34:54;19.10;;;11.50;;
25509;SDS011;13413;52.336;21.200;2023-01-13T06:37:50;20.60;;;13.10;;
25509;SDS011;13413;52.336;21.200;2023-01-13T06:40:47;19.50;;;12.20;;
25509;SDS011;13413;52.336;21.200;2023-01-13T06:43:41;19.60;;;10.50;;
25509;SDS011;13413;52.336;21.200;2023-01-13T06:46:35;25.50;;;12.90;;
25509;SDS011;13413;52.336;21.200;2023-01-13T06:49:29;20.00;;;12.30;;
25509;SDS011;13413;52.336;21.200;2023-01-13T06:52:23;23.70;;;13.00;;
25509;SDS011;13413;52.336;21.200;2023-01-13T06:55:17;28.70;;;13.90;;
25509;SDS011;13413;52.336;21.200;2023-01-13T06:58:11;23.80;;;11.50;;
25509;SDS011;13413;52.336;21.200;2023-01-13T07:01:05;25.70;;;13.60;;
25509;SDS011;13413;52.336;21.200;2023-01-13T07:03:59;17.90;;;11.40;;
25509;SDS011;13413;52.336;21.200;2023-01-13T07:06:53;19.30;;;12.40;;
25509;SDS011;13413;52.336;21.200;2023-01-13T07:09:47;19.10;;;10.90;;
25509;SDS011;13413;52.336;21.200;2023-01-13T07:12:41;26.10;;;10.00;;
25509;SDS011;13413;52.336;21.200;2023-01-13T07:15:35;18.00;;;11.60;;
25509;SDS011;13413;52.336;21.200;2023-01-13T07:18:30;24.70;;;13.00;;
25509;SDS011;13413;52.336;21.200;2023-01-13T07:21:25;19.40;;;12.80;;
25509;SDS011;13413;52.336;21.200;2023-01-13T07:24:20;24.10;;;12.00;;
25509;SDS011;13413;52.336;21.200;2023-01-13T07:27:13;18.70;;;11.40;;
25509;SDS011;13413;52.336;21.200;2023-01-13T07:30:23;27.60;;;11.90;;
25509;SDS011;13413;52.336;21.200;2023-01-13T07:33:18;20.00;;;12.70;;
25509;SDS011;13413;52.336;21.200;2023-01-13T07:36:13;22.80;;;13.90;;
25509;SDS011;13413;52.336;21.200;2023-01-13T07:39:08;25.70;;;14.20;;
25509;SDS011;13413;52.336;21.200;2023-01-13T07:50:27;26.20;;;13.30;;
25509;SDS011;13413;52.336;21.200;2023-01-13T07:53:21;25.40;;;15.60;;
25509;SDS011;13413;52.336;21.200;2023-01-13T07:56:16;28.80;;;15.30;;
25509;SDS011;13413;52.336;21.200;2023-01-13T07:59:10;27.70;;;16.30;;
25509;SDS011;13413;52.336;21.200;2023-01-13T08:02:04;23.70;;;13.80;;
25509;SDS011;13413;52.336;21.200;2023-01-13T08:05:01;27.70;;;15.90;;
25509;SDS011;13413;52.336;21.200;2023-01-13T08:07:55;31.90;;;15.60;;
25509;SDS011;13413;52.336;21.200;2023-01-13T08:10:49;43.50;;;21.60;;
25509;SDS011;13413;52.336;21.200;2023-01-13T08:13:43;27.00;;;14.70;;
25509;SDS011;13413;52.336;21.200;2023-01-13T08:16:37;28.00;;;12.30;;
25509;SDS011;13413;52.336;21.200;2023-01-13T08:19:31;26.20;;;11.90;;
25509;SDS011;13413;52.336;21.200;2023-01-13T08:25:32;29.20;;;14.30;;
25509;SDS011;13413;52.336;21.200;2023-01-13T08:28:29;28.80;;;16.80;;
25509;SDS011;13413;52.336;21.200;2023-01-13T08:31:24;51.30;;;27.30;;
25509;SDS011;13413;52.336;21.200;2023-01-13T08:34:31;41.20;;;22.30;;
25509;SDS011;13413;52.336;21.200;2023-01-13T08:37:27;30.00;;;16.40;;
25509;SDS011;13413;52.336;21.200;2023-01-13T08:40:21;29.30;;;15.80;;
25509;SDS011;13413;52.336;21.200;2023-01-13T08:46:08;46.80;;;21.40;;
25509;SDS011;13413;52.336;21.200;2023-01-13T08:49:02;22.40;;;13.00;;
25509;SDS011;13413;52.336;21.200;2023-01-13T08:51:56;24.30;;;15.00;;
25509;SDS011;13413;52.336;21.200;2023-01-13T08:54:50;32.20;;;16.90;;
25509;SDS011;13413;52.336;21.200;2023-01-13T08:57:44;46.10;;;20.60;;
25509;SDS011;13413;52.336;21.200;2023-01-13T09:00:38;33.40;;;16.80;;
25509;SDS011;13413;52.336;21.200;2023-01-13T09:06:25;40.30;;;19.40;;
25509;SDS011;13413;52.336;21.200;2023-01-13T09:09:19;31.90;;;17.70;;
25509;SDS011;13413;52.336;21.200;2023-01-13T09:15:07;45.40;;;20.60;;
25509;SDS011;13413;52.336;21.200;2023-01-13T09:18:02;23.80;;;14.30;;
25509;SDS011;13413;52.336;21.200;2023-01-13T09:20:57;38.10;;;16.00;;
25509;SDS011;13413;52.336;21.200;2023-01-13T09:23:51;22.70;;;13.90;;
25509;SDS011;13413;52.336;21.200;2023-01-13T09:26:45;27.90;;;16.30;;
25509;SDS011;13413;52.336;21.200;2023-01-13T09:29:39;25.00;;;14.90;;
25509;SDS011;13413;52.336;21.200;2023-01-13T09:32:34;25.50;;;14.90;;
25509;SDS011;13413;52.336;21.200;2023-01-13T09:35:28;23.50;;;14.30;;
25509;SDS011;13413;52.336;21.200;2023-01-13T09:38:22;24.90;;;13.60;;
25509;SDS011;13413;52.336;21.200;2023-01-13T09:41:18;19.20;;;7.80;;
25509;SDS011;13413;52.336;21.200;2023-01-13T09:44:15;21.00;;;12.90;;
25509;SDS011;13413;52.336;21.200;2023-01-13T09:47:16;17.90;;;13.10;;
25509;SDS011;13413;52.336;21.200;2023-01-13T09:53:32;28.90;;;16.20;;
25509;SDS011;13413;52.336;21.200;2023-01-13T09:56:29;20.40;;;12.90;;
25509;SDS011;13413;52.336;21.200;2023-01-13T09:59:29;22.20;;;12.60;;
25509;SDS011;13413;52.336;21.200;2023-01-13T10:03:41;18.60;;;13.00;;
25509;SDS011;13413;52.336;21.200;2023-01-13T10:06:36;22.10;;;11.30;;
25509;SDS011;13413;52.336;21.200;2023-01-13T10:09:38;17.20;;;10.80;;
25509;SDS011;13413;52.336;21.200;2023-01-13T10:12:50;18.70;;;11.90;;
25509;SDS011;13413;52.336;21.200;2023-01-13T10:15:49;18.60;;;10.60;;
25509;SDS011;13413;52.336;21.200;2023-01-13T10:18:53;19.70;;;11.50;;
25509;SDS011;13413;52.336;21.200;2023-01-13T10:22:07;20.90;;;12.90;;
25509;SDS011;13413;52.336;21.200;2023-01-13T10:28:24;22.70;;;12.40;;
25509;SDS011;13413;52.336;21.200;2023-01-13T10:31:19;18.70;;;11.50;;
25509;SDS011;13413;52.336;21.200;2023-01-13T10:34:14;16.50;;;10.60;;
25509;SDS011;13413;52.336;21.200;2023-01-13T10:37:09;19.60;;;12.00;;
25509;SDS011;13413;52.336;21.200;2023-01-13T10:40:15;19.40;;;11.40;;
25509;SDS011;13413;52.336;21.200;2023-01-13T10:43:11;20.10;;;10.30;;
25509;SDS011;13413;52.336;21.200;2023-01-13T10:46:05;19.30;;;11.60;;
25509;SDS011;13413;52.336;21.200;2023-01-13T10:49:22;15.20;;;10.70;;
25509;SDS011;13413;52.336;21.200;2023-01-13T10:52:24;19.70;;;10.80;;
25509;SDS011;13413;52.336;21.200;2023-01-13T10:55:24;16.00;;;9.90;;
25509;SDS011;13413;52.336;21.200;2023-01-13T10:58:20;18.00;;;10.20;;
25509;SDS011;13413;52.336;21.200;2023-01-13T11:01:20;20.60;;;11.10;;
25509;SDS011;13413;52.336;21.200;2023-01-13T11:04:25;15.60;;;10.40;;
25509;SDS011;13413;52.336;21.200;2023-01-13T11:07:23;15.00;;;9.10;;
25509;SDS011;13413;52.336;21.200;2023-01-13T11:10:24;15.10;;;10.10;;
25509;SDS011;13413;52.336;21.200;2023-01-13T11:13:20;12.60;;;9.00;;
25509;SDS011;13413;52.336;21.200;2023-01-13T11:16:22;17.60;;;10.00;;
25509;SDS011;13413;52.336;21.200;2023-01-13T11:19:17;15.80;;;9.90;;
25509;SDS011;13413;52.336;21.200;2023-01-13T11:22:15;17.30;;;9.60;;
25509;SDS011;13413;52.336;21.200;2023-01-13T11:25:14;17.00;;;10.40;;
25509;SDS011;13413;52.336;21.200;2023-01-13T11:28:28;18.20;;;9.90;;
25509;SDS011;13413;52.336;21.200;2023-01-13T11:31:31;14.10;;;9.60;;
25509;SDS011;13413;52.336;21.200;2023-01-13T11:34:29;19.30;;;12.10;;
25509;SDS011;13413;52.336;21.200;2023-01-13T11:37:27;16.40;;;11.10;;
25509;SDS011;13413;52.336;21.200;2023-01-13T11:40:25;14.10;;;10.40;;
25509;SDS011;13413;52.336;21.200;2023-01-13T11:43:26;18.70;;;11.70;;
25509;SDS011;13413;52.336;21.200;2023-01-13T11:46:26;14.50;;;9.80;;
25509;SDS011;13413;52.336;21.200;2023-01-13T11:49:23;18.30;;;10.60;;
25509;SDS011;13413;52.336;21.200;2023-01-13T11:52:20;20.80;;;11.20;;
25509;SDS011;13413;52.336;21.200;2023-01-13T11:55:26;17.70;;;10.80;;
25509;SDS011;13413;52.336;21.200;2023-01-13T11:58:36;20.20;;;11.10;;
25509;SDS011;13413;52.336;21.200;2023-01-13T12:01:55;13.30;;;9.40;;
25509;SDS011;13413;52.336;21.200;2023-01-13T12:04:58;14.20;;;9.50;;
25509;SDS011;13413;52.336;21.200;2023-01-13T12:08:02;17.40;;;10.40;;
25509;SDS011;13413;52.336;21.200;2023-01-13T12:11:12;24.20;;;10.70;;
25509;SDS011;13413;52.336;21.200;2023-01-13T12:31:10;15.10;;;9.50;;
25509;SDS011;13413;52.336;21.200;2023-01-13T12:34:08;18.10;;;11.20;;
25509;SDS011;13413;52.336;21.200;2023-01-13T12:37:14;18.10;;;10.60;;
25509;SDS011;13413;52.336;21.200;2023-01-13T12:40:20;17.70;;;11.30;;
25509;SDS011;13413;52.336;21.200;2023-01-13T12:43:30;18.30;;;9.70;;
25509;SDS011;13413;52.336;21.200;2023-01-13T12:46:35;17.00;;;10.30;;
25509;SDS011;13413;52.336;21.200;2023-01-13T12:49:38;15.10;;;10.70;;
25509;SDS011;13413;52.336;21.200;2023-01-13T12:52:31;16.80;;;11.30;;
25509;SDS011;13413;52.336;21.200;2023-01-13T12:55:36;16.10;;;11.20;;
25509;SDS011;13413;52.336;21.200;2023-01-13T12:58:30;14.70;;;9.20;;
25509;SDS011;13413;52.336;21.200;2023-01-13T13:01:33;17.80;;;10.10;;
25509;SDS011;13413;52.336;21.200;2023-01-13T13:04:42;15.90;;;11.60;;
25509;SDS011;13413;52.336;21.200;2023-01-13T13:07:39;22.70;;;11.90;;
25509;SDS011;13413;52.336;21.200;2023-01-13T13:10:36;19.50;;;10.40;;
25509;SDS011;13413;52.336;21.200;2023-01-13T13:13:41;19.40;;;10.80;;
25509;SDS011;13413;52.336;21.200;2023-01-13T13:16:45;15.70;;;10.30;;
25509;SDS011;13413;52.336;21.200;2023-01-13T13:19:41;18.20;;;11.10;;
25509;SDS011;13413;52.336;21.200;2023-01-13T13:22:37;23.60;;;13.10;;
25509;SDS011;13413;52.336;21.200;2023-01-13T13:25:46;19.50;;;13.10;;
25509;SDS011;13413;52.336;21.200;2023-01-13T13:29:04;21.60;;;12.40;;
25509;SDS011;13413;52.336;21.200;2023-01-13T13:32:16;16.90;;;11.00;;
25509;SDS011;13413;52.336;21.200;2023-01-13T13:35:34;24.60;;;13.00;;
25509;SDS011;13413;52.336;21.200;2023-01-13T13:38:43;19.20;;;12.40;;
25509;SDS011;13413;52.336;21.200;2023-01-13T13:41:47;17.20;;;11.90;;
25509;SDS011;13413;52.336;21.200;2023-01-13T13:44:48;18.80;;;10.80;;
25509;SDS011;13413;52.336;21.200;2023-01-13T13:47:44;16.10;;;9.60;;
25509;SDS011;13413;52.336;21.200;2023-01-13T13:50:39;14.80;;;10.10;;
25509;SDS011;13413;52.336;21.200;2023-01-13T13:53:40;17.50;;;10.80;;
25509;SDS011;13413;52.336;21.200;2023-01-13T13:56:38;19.70;;;11.10;;
25509;SDS011;13413;52.336;21.200;2023-01-13T13:59:35;18.80;;;10.50;;
25509;SDS011;13413;52.336;21.200;2023-01-13T14:02:31;16.80;;;11.40;;
25509;SDS011;13413;52.336;21.200;2023-01-13T14:05:29;18.40;;;10.90;;
25509;SDS011;13413;52.336;21.200;2023-01-13T14:08:25;15.20;;;10.30;;
25509;SDS011;13413;52.336;21.200;2023-01-13T14:11:29;16.90;;;11.10;;
25509;SDS011;13413;52.336;21.200;2023-01-13T14:14:25;18.40;;;11.70;;
25509;SDS011;13413;52.336;21.200;2023-01-13T14:17:33;17.20;;;11.40;;
25509;SDS011;13413;52.336;21.200;2023-01-13T14:23:47;11.50;;;9.20;;
25509;SDS011;13413;52.336;21.200;2023-01-13T14:26:44;18.10;;;11.20;;
25509;SDS011;13413;52.336;21.200;2023-01-13T14:29:39;16.60;;;10.60;;
25509;SDS011;13413;52.336;21.200;2023-01-13T14:32:33;17.40;;;12.10;;
25509;SDS011;13413;52.336;21.200;2023-01-13T14:35:28;16.70;;;11.30;;
25509;SDS011;13413;52.336;21.200;2023-01-13T14:38:35;16.40;;;11.70;;
25509;SDS011;13413;52.336;21.200;2023-01-13T14:41:29;21.10;;;11.10;;
25509;SDS011;13413;52.336;21.200;2023-01-13T14:50:41;20.20;;;13.40;;
25509;SDS011;13413;52.336;21.200;2023-01-13T14:53:40;19.80;;;12.50;;
25509;SDS011;13413;52.336;21.200;2023-01-13T14:56:43;22.00;;;11.90;;
25509;SDS011;13413;52.336;21.200;2023-01-13T14:59:46;21.90;;;14.50;;
25509;SDS011;13413;52.336;21.200;2023-01-13T15:02:47;20.80;;;13.10;;
25509;SDS011;13413;52.336;21.200;2023-01-13T15:05:51;23.30;;;14.50;;
25509;SDS011;13413;52.336;21.200;2023-01-13T15:08:46;23.70;;;13.70;;
25509;SDS011;13413;52.336;21.200;2023-01-13T15:11:40;22.70;;;15.00;;
25509;SDS011;13413;52.336;21.200;2023-01-13T15:14:34;25.20;;;14.80;;
25509;SDS011;13413;52.336;21.200;2023-01-13T15:17:28;22.20;;;15.70;;
25509;SDS011;13413;52.336;21.200;2023-01-13T15:20:22;24.20;;;15.10;;
25509;SDS011;13413;52.336;21.200;2023-01-13T15:23:17;25.20;;;15.70;;
25509;SDS011;13413;52.336;21.200;2023-01-13T15:26:16;23.20;;;14.90;;
25509;SDS011;13413;52.336;21.200;2023-01-13T15:29:13;22.40;;;15.50;;
25509;SDS011;13413;52.336;21.200;2023-01-13T15:32:17;29.30;;;16.60;;
25509;SDS011;13413;52.336;21.200;2023-01-13T15:35:13;38.10;;;20.90;;
25509;SDS011;13413;52.336;21.200;2023-01-13T15:38:09;75.00;;;32.80;;
25509;SDS011;13413;52.336;21.200;2023-01-13T15:41:05;140.10;;;70.70;;
25509;SDS011;13413;52.336;21.200;2023-01-13T15:44:01;50.50;;;29.80;;
25509;SDS011;13413;52.336;21.200;2023-01-13T15:46:55;29.30;;;18.80;;
25509;SDS011;13413;52.336;21.200;2023-01-13T15:49:50;37.00;;;23.10;;
25509;SDS011;13413;52.336;21.200;2023-01-13T15:55:37;43.80;;;26.50;;
25509;SDS011;13413;52.336;21.200;2023-01-13T15:58:33;36.30;;;25.00;;
25509;SDS011;13413;52.336;21.200;2023-01-13T16:01:27;35.80;;;24.30;;
25509;SDS011;13413;52.336;21.200;2023-01-13T16:04:21;26.50;;;16.60;;
25509;SDS011;13413;52.336;21.200;2023-01-13T16:07:16;27.10;;;17.30;;
25509;SDS011;13413;52.336;21.200;2023-01-13T16:10:15;27.20;;;16.20;;
25509;SDS011;13413;52.336;21.200;2023-01-13T16:13:12;23.00;;;15.20;;
25509;SDS011;13413;52.336;21.200;2023-01-13T16:16:12;20.30;;;13.30;;
25509;SDS011;13413;52.336;21.200;2023-01-13T16:19:11;25.80;;;16.70;;
25509;SDS011;13413;52.336;21.200;2023-01-13T16:22:05;23.30;;;15.10;;
25509;SDS011;13413;52.336;21.200;2023-01-13T16:25:00;25.30;;;15.70;;
25509;SDS011;13413;52.336;21.200;2023-01-13T16:27:54;24.00;;;14.00;;
25509;SDS011;13413;52.336;21.200;2023-01-13T16:30:48;24.10;;;15.50;;
25509;SDS011;13413;52.336;21.200;2023-01-13T16:33:42;25.10;;;15.70;;
25509;SDS011;13413;52.336;21.200;2023-01-13T16:36:36;23.80;;;14.10;;
25509;SDS011;13413;52.336;21.200;2023-01-13T16:39:30;27.70;;;17.30;;
25509;SDS011;13413;52.336;21.200;2023-01-13T16:42:24;27.20;;;16.90;;
25509;SDS011;13413;52.336;21.200;2023-01-13T16:45:18;24.90;;;16.30;;
25509;SDS011;13413;52.336;21.200;2023-01-13T16:48:14;30.60;;;18.70;;
25509;SDS011;13413;52.336;21.200;2023-01-13T16:51:11;31.40;;;18.10;;
25509;SDS011;13413;52.336;21.200;2023-01-13T16:54:05;29.90;;;18.20;;
25509;SDS011;13413;52.336;21.200;2023-01-13T16:56:59;27.60;;;16.10;;
25509;SDS011;13413;52.336;21.200;2023-01-13T16:59:53;24.30;;;16.00;;
25509;SDS011;13413;52.336;21.200;2023-01-13T17:11:00;25.50;;;16.10;;
25509;SDS011;13413;52.336;21.200;2023-01-13T17:13:54;26.60;;;15.10;;
25509;SDS011;13413;52.336;21.200;2023-01-13T17:16:48;24.40;;;14.80;;
25509;SDS011;13413;52.336;21.200;2023-01-13T17:19:43;24.60;;;14.90;;
25509;SDS011;13413;52.336;21.200;2023-01-13T17:22:37;28.80;;;15.00;;
25509;SDS011;13413;52.336;21.200;2023-01-13T17:25:31;26.10;;;15.90;;
25509;SDS011;13413;52.336;21.200;2023-01-13T17:28:25;24.10;;;15.80;;
25509;SDS011;13413;52.336;21.200;2023-01-13T17:31:19;23.20;;;15.80;;
25509;SDS011;13413;52.336;21.200;2023-01-13T17:34:13;28.10;;;17.10;;
25509;SDS011;13413;52.336;21.200;2023-01-13T17:37:07;25.30;;;17.50;;
25509;SDS011;13413;52.336;21.200;2023-01-13T17:43:09;28.50;;;18.20;;
25509;SDS011;13413;52.336;21.200;2023-01-13T17:46:07;27.90;;;17.50;;
25509;SDS011;13413;52.336;21.200;2023-01-13T17:49:02;28.10;;;15.70;;
25509;SDS011;13413;52.336;21.200;2023-01-13T17:52:12;24.10;;;16.40;;
25509;SDS011;13413;52.336;21.200;2023-01-13T17:55:07;30.00;;;19.40;;
25509;SDS011;13413;52.336;21.200;2023-01-13T18:00:53;21.20;;;12.90;;
25509;SDS011;13413;52.336;21.200;2023-01-13T18:03:47;28.10;;;17.10;;
25509;SDS011;13413;52.336;21.200;2023-01-13T18:06:42;21.90;;;15.50;;
25509;SDS011;13413;52.336;21.200;2023-01-13T18:09:36;26.80;;;17.50;;
25509;SDS011;13413;52.336;21.200;2023-01-13T18:12:30;27.50;;;17.40;;
25509;SDS011;13413;52.336;21.200;2023-01-13T18:15:24;30.20;;;18.50;;
25509;SDS011;13413;52.336;21.200;2023-01-13T18:18:18;26.80;;;18.40;;
25509;SDS011;13413;52.336;21.200;2023-01-13T18:21:16;28.30;;;18.60;;
25509;SDS011;13413;52.336;21.200;2023-01-13T18:24:12;37.80;;;19.90;;
25509;SDS011;13413;52.336;21.200;2023-01-13T18:27:08;34.20;;;21.60;;
25509;SDS011;13413;52.336;21.200;2023-01-13T18:30:05;30.90;;;18.90;;
25509;SDS011;13413;52.336;21.200;2023-01-13T18:33:02;28.60;;;19.40;;
25509;SDS011;13413;52.336;21.200;2023-01-13T18:35:56;33.60;;;19.50;;
25509;SDS011;13413;52.336;21.200;2023-01-13T18:38:50;29.70;;;20.40;;
25509;SDS011;13413;52.336;21.200;2023-01-13T18:41:44;34.50;;;22.30;;
25509;SDS011;13413;52.336;21.200;2023-01-13T18:44:38;31.50;;;20.70;;
25509;SDS011;13413;52.336;21.200;2023-01-13T18:47:32;29.10;;;19.90;;
25509;SDS011;13413;52.336;21.200;2023-01-13T18:50:26;29.60;;;19.70;;
25509;SDS011;13413;52.336;21.200;2023-01-13T18:53:21;35.30;;;18.90;;
25509;SDS011;13413;52.336;21.200;2023-01-13T18:59:09;36.80;;;23.50;;
25509;SDS011;13413;52.336;21.200;2023-01-13T19:02:03;66.10;;;41.00;;
25509;SDS011;13413;52.336;21.200;2023-01-13T19:05:05;42.00;;;26.10;;
25509;SDS011;13413;52.336;21.200;2023-01-13T19:10:51;45.40;;;31.10;;